Time;durP1;ratioP1;P1;durP2;ratioP2;P2;SDS_P1;SDS_P2;PMS_P1;PMS_P2;Temp;Humidity;BMP_temperature;BMP_pressure;BME280_temperature;BME280_humidity;BME280_pressure;Samples;Min_cycle;Max_cycle;Signal;HPM_P1;HPM_P2
2023/01/12 00:00:36;;;;;;;8.10;2.13;;;7.20;85.00;;;6.92;75.30;98206.56;5096091;28;20458;-73
2023/01/12 00:03:03;;;;;;;6.90;2.30;;;7.20;84.00;;;7.10;74.67;98211.50;5084625;28;20460;-71
2023/01/12 00:05:34;;;;;;;6.33;2.20;;;7.30;83.80;;;7.06;74.35;98196.78;5089039;28;20476;-72
2023/01/12 00:08:01;;;;;;;4.70;2.20;;;7.30;83.40;;;7.02;74.86;98199.03;5069715;28;20450;-73
2023/01/12 00:10:28;;;;;;;6.30;2.13;;;7.30;83.60;;;7.00;74.78;98193.00;5065090;28;20824;-74
2023/01/12 00:12:55;;;;;;;12.87;2.73;;;7.30;83.50;;;6.95;74.90;98198.13;5066968;28;20462;-75
2023/01/12 00:16:33;;;;;;;7.93;2.30;;;7.30;83.80;;;6.88;74.73;98189.97;5087742;28;20498;-74
2023/01/12 00:18:23;;;;;;;5.27;2.30;;;7.30;83.30;;;6.94;74.75;98204.50;5061203;28;20537;-71
2023/01/12 00:20:52;;;;;;;8.40;2.00;;;7.30;83.50;;;6.95;74.58;98196.25;5079396;28;20482;-71
2023/01/12 00:23:20;;;;;;;8.13;1.83;;;7.30;83.40;;;7.08;74.47;98197.44;5090908;28;20457;-73
2023/01/12 00:25:51;;;;;;;7.53;2.43;;;7.30;83.50;;;6.97;75.13;98201.44;5086303;28;20956;-75
2023/01/12 00:28:18;;;;;;;6.47;2.37;;;7.30;83.50;;;7.06;74.40;98200.31;5076657;28;20444;-74
2023/01/12 00:30:45;;;;;;;11.90;2.90;;;7.30;83.60;;;6.79;75.02;98210.72;5096872;28;20932;-74
2023/01/12 00:33:14;;;;;;;3.97;1.87;;;7.30;83.20;;;6.94;74.90;98205.31;5062211;28;20797;-74
2023/01/12 00:35:43;;;;;;;6.67;2.50;;;7.30;83.20;;;6.97;74.98;98206.81;5093763;28;20469;-71
2023/01/12 00:38:11;;;;;;;8.80;3.00;;;7.30;83.70;;;7.02;74.50;98208.94;5088719;28;20502;-73
2023/01/12 00:40:38;;;;;;;8.70;2.50;;;7.30;83.60;;;7.08;74.51;98209.03;5096972;28;20464;-71
2023/01/12 00:45:54;;;;;;;9.63;2.57;;;7.30;83.80;;;6.92;74.58;98193.13;5072605;28;20968;-73
2023/01/12 00:48:22;;;;;;;4.67;2.07;;;7.30;83.40;;;7.04;74.77;98213.09;5088248;28;20447;-73
2023/01/12 00:50:49;;;;;;;6.73;2.00;;;7.30;83.40;;;6.85;75.49;98201.09;5072186;28;20459;-76
2023/01/12 00:53:17;;;;;;;7.07;2.37;;;7.30;83.40;;;6.98;75.04;98195.06;5089940;28;20437;-73
2023/01/12 00:55:45;;;;;;;7.47;2.53;;;7.30;83.50;;;7.09;74.44;98207.16;5089231;28;20477;-74
2023/01/12 00:58:12;;;;;;;7.53;2.53;;;7.30;83.30;;;7.05;74.24;98205.88;5088136;28;20437;-73
2023/01/12 01:00:39;;;;;;;6.93;1.60;;;7.30;83.20;;;7.00;74.62;98211.81;5095803;28;20459;-73
2023/01/12 01:03:06;;;;;;;4.90;2.33;;;7.30;83.20;;;6.98;75.17;98211.16;5088937;28;20448;-73
2023/01/12 01:05:34;;;;;;;5.80;2.17;;;7.30;83.40;;;6.61;74.21;98137.78;5082440;28;20479;-71
2023/01/12 01:08:01;;;;;;;8.37;2.10;;;7.30;83.00;;;7.11;73.61;98198.91;5086894;28;20450;-75
2023/01/12 01:10:30;;;;;;;7.10;1.80;;;7.40;82.90;;;7.18;73.19;98202.50;5089421;28;20448;-72
2023/01/12 01:12:57;;;;;;;6.67;2.23;;;7.40;82.70;;;7.12;72.92;98200.59;5068096;28;20465;-74
2023/01/12 01:15:24;;;;;;;5.60;1.50;;;7.40;82.20;;;7.20;72.54;98205.84;5087682;28;20557;-72
2023/01/12 01:17:52;;;;;;;7.77;1.57;;;7.50;82.20;;;7.06;73.35;98205.69;5088464;28;20452;-72
2023/01/12 01:20:20;;;;;;;6.27;2.07;;;7.50;82.00;;;7.01;73.55;98202.72;5089783;28;20489;-75
2023/01/12 01:22:47;;;;;;;8.87;2.37;;;7.40;82.10;;;7.09;73.46;98194.56;5072477;28;20517;-73
2023/01/12 01:25:15;;;;;;;8.90;2.13;;;7.40;82.10;;;6.98;74.10;98202.28;5063200;28;20878;-71
2023/01/12 01:27:43;;;;;;;4.97;2.00;;;7.40;82.20;;;7.00;73.75;98201.06;5066647;28;20460;-72
2023/01/12 01:30:12;;;;;;;6.20;1.57;;;7.40;82.20;;;6.99;73.81;98199.41;5080853;28;20457;-71
2023/01/12 01:32:39;;;;;;;15.23;2.70;;;7.40;82.20;;;6.61;74.12;98132.41;5087129;28;20475;-72
2023/01/12 01:35:06;;;;;;;8.10;1.80;;;7.40;82.40;;;7.00;73.73;98181.44;5081091;28;20563;-71
2023/01/12 01:37:34;;;;;;;9.23;1.90;;;7.50;82.20;;;7.08;74.30;98208.19;5082897;28;21306;-72
2023/01/12 01:40:03;;;;;;;7.10;1.53;;;7.40;82.50;;;7.04;74.15;98199.66;5078767;28;20473;-72
2023/01/12 01:42:31;;;;;;;5.80;2.03;;;7.40;82.50;;;7.09;74.28;98205.31;5069130;28;20453;-72
2023/01/12 01:45:05;;;;;;;6.37;2.20;;;7.40;82.70;;;6.81;74.76;98207.84;5084825;28;20961;-72
2023/01/12 01:47:39;;;;;;;8.60;1.90;;;7.40;82.50;;;6.98;74.15;98203.09;5083008;28;20811;-73
2023/01/12 01:50:16;;;;;;;4.90;2.30;;;7.30;82.60;;;6.85;74.74;98224.44;5062620;28;20450;-73
2023/01/12 01:52:48;;;;;;;5.73;1.50;;;7.30;82.70;;;6.99;74.40;98210.16;5089786;28;20453;-73
2023/01/12 01:55:21;;;;;;;4.80;2.17;;;7.40;82.80;;;6.97;73.99;98212.19;5069919;28;20465;-72
2023/01/12 01:57:54;;;;;;;5.17;1.90;;;7.30;82.60;;;7.01;74.27;98207.28;5079274;28;20493;-73
2023/01/12 02:00:25;;;;;;;3.70;1.67;;;7.30;82.60;;;6.91;74.45;98204.91;5085888;28;20464;-74
2023/01/12 02:02:52;;;;;;;7.63;2.03;;;7.30;82.60;;;6.82;75.03;98200.63;5088572;28;20459;-73
2023/01/12 02:05:25;;;;;;;7.77;2.27;;;7.30;82.90;;;6.83;74.71;98205.81;5065429;28;20478;-76
2023/01/12 02:07:54;;;;;;;3.73;1.73;;;7.20;82.70;;;6.80;74.62;98196.28;5083741;28;20453;-73
2023/01/12 02:10:21;;;;;;;3.97;2.40;;;7.20;82.60;;;6.86;74.40;98177.75;5072657;28;20936;-71
2023/01/12 02:18:38;;;;;;;6.33;1.90;;;7.20;82.60;;;6.54;75.07;98179.81;5087998;28;20456;-73
2023/01/12 02:22:08;;;;;;;3.97;1.70;;;7.00;82.80;;;6.47;75.66;98179.72;5088394;28;20459;-72
2023/01/12 02:25:17;;;;;;;3.30;2.00;;;6.90;83.10;;;6.37;76.00;98185.34;4998024;28;20484;-73
2023/01/12 02:28:11;;;;;;;4.60;1.70;;;6.80;83.00;;;6.49;75.17;98183.88;5067165;28;20473;-73
2023/01/12 02:31:30;;;;;;;3.20;1.80;;;6.90;83.00;;;6.61;75.01;98192.31;5083710;28;20498;-73
2023/01/12 02:34:13;;;;;;;4.80;1.60;;;6.90;83.10;;;6.26;76.28;98178.59;5087779;28;20497;-72
2023/01/12 02:36:53;;;;;;;8.63;2.07;;;6.80;83.00;;;6.24;75.91;98168.03;5086404;28;20471;-73
2023/01/12 02:39:27;;;;;;;4.37;1.83;;;6.70;83.00;;;6.16;76.23;98169.97;5084553;28;20460;-75
2023/01/12 02:45:03;;;;;;;3.40;1.47;;;6.60;83.20;;;6.08;76.45;98166.38;5065299;28;20480;-72
2023/01/12 02:47:39;;;;;;;7.00;1.80;;;6.50;83.40;;;6.09;76.21;98167.19;5088228;28;20451;-74
2023/01/12 02:50:13;;;;;;;4.30;1.90;;;6.50;83.70;;;6.02;76.75;98171.63;5096282;28;20456;-73
2023/01/12 02:52:46;;;;;;;10.80;2.40;;;6.40;84.00;;;5.98;76.78;98164.91;5065716;28;20558;-73
2023/01/12 02:55:17;;;;;;;5.07;2.07;;;6.40;84.10;;;5.89;76.88;98150.75;5074054;28;21944;-73
2023/01/12 02:57:45;;;;;;;8.97;1.80;;;6.30;84.10;;;5.87;77.14;98159.00;5073585;28;20740;-73
2023/01/12 03:00:17;;;;;;;5.77;1.70;;;6.30;84.10;;;5.96;76.76;98154.38;5075100;28;20812;-74
2023/01/12 03:02:46;;;;;;;5.20;2.40;;;6.40;84.10;;;5.68;76.79;98115.56;5075912;28;20484;-72
2023/01/12 03:05:13;;;;;;;3.80;1.83;;;6.40;84.40;;;5.96;77.00;98157.88;5078299;28;20475;-73
2023/01/12 03:07:47;;;;;;;5.03;1.87;;;6.30;84.10;;;5.75;77.49;98149.72;5072507;28;20855;-74
2023/01/12 03:10:45;;;;;;;3.50;1.60;;;6.30;84.30;;;5.82;77.50;98153.31;5093992;28;20457;-72
2023/01/12 03:13:15;;;;;;;8.00;1.63;;;6.20;84.30;;;5.85;76.76;98149.47;5096632;28;20454;-71
2023/01/12 03:15:47;;;;;;;3.70;1.40;;;6.20;84.60;;;5.72;77.06;98155.44;5089157;28;20444;-72
2023/01/12 03:18:21;;;;;;;7.13;1.83;;;6.20;84.40;;;5.71;77.76;98140.38;5091082;28;20463;-72
2023/01/12 03:20:53;;;;;;;8.70;1.80;;;6.10;84.60;;;5.70;77.73;98154.81;5089009;28;20452;-73
2023/01/12 03:23:24;;;;;;;3.90;2.17;;;6.10;84.90;;;5.59;78.13;98142.63;5089244;28;21015;-72
2023/01/12 03:25:55;;;;;;;3.97;1.73;;;6.00;85.10;;;5.61;77.88;98141.44;5092705;28;20494;-73
2023/01/12 03:28:27;;;;;;;5.03;2.10;;;6.00;85.30;;;5.53;77.84;98136.13;5081795;28;20449;-73
2023/01/12 03:31:01;;;;;;;5.40;1.80;;;5.90;85.70;;;5.51;77.84;98122.09;5089907;28;20455;-71
2023/01/12 03:33:29;;;;;;;5.67;1.80;;;5.90;85.80;;;5.41;78.48;98121.53;5087393;28;20580;-71
2023/01/12 03:36:07;;;;;;;3.00;1.70;;;5.80;85.70;;;5.40;78.73;98131.41;5085538;28;20451;-74
2023/01/12 03:38:45;;;;;;;7.77;1.60;;;5.80;85.80;;;5.38;78.48;98128.91;5093155;28;20561;-72
2023/01/12 03:41:21;;;;;;;4.23;1.60;;;5.80;85.90;;;5.31;78.97;98127.94;5092873;28;20810;-72
2023/01/12 03:43:51;;;;;;;7.53;1.60;;;5.70;86.10;;;5.37;78.89;98137.13;5066205;28;20448;-72
2023/01/12 03:46:26;;;;;;;5.67;1.60;;;5.70;86.10;;;5.26;78.73;98130.34;5068911;28;20502;-72
2023/01/12 03:49:01;;;;;;;3.83;1.50;;;5.70;86.10;;;5.24;79.08;98133.19;5086681;28;20459;-70
2023/01/12 03:51:33;;;;;;;1.87;1.23;;;5.70;86.10;;;5.28;78.52;98133.66;5085021;28;20472;-73
2023/01/12 03:54:03;;;;;;;4.47;1.60;;;5.70;86.30;;;5.01;78.66;98090.31;5089460;28;20491;-71
2023/01/12 03:56:33;;;;;;;5.70;1.37;;;5.60;86.30;;;5.16;78.35;98124.38;5080281;28;20464;-73
2023/01/12 03:59:01;;;;;;;1.73;1.40;;;5.60;85.80;;;5.19;78.33;98119.50;5088415;28;20459;-73
2023/01/12 04:01:28;;;;;;;4.10;1.50;;;5.60;85.80;;;5.19;78.62;98113.31;5065922;28;22056;-74
2023/01/12 04:03:57;;;;;;;5.30;1.50;;;5.60;86.00;;;5.20;78.24;98109.59;5084344;28;20451;-72
2023/01/12 04:06:24;;;;;;;9.57;2.07;;;5.60;86.00;;;5.26;78.21;98111.59;5073192;28;20483;-71
2023/01/12 04:08:51;;;;;;;4.00;1.30;;;5.70;85.40;;;5.25;78.24;98104.56;5076113;28;20479;-71
2023/01/12 04:14:04;;;;;;;4.20;1.30;;;5.70;85.30;;;5.23;77.36;98087.81;5081542;28;20462;-72
2023/01/12 04:16:31;;;;;;;4.50;2.20;;;5.70;84.90;;;5.18;77.74;98085.69;5070647;28;20817;-73
2023/01/12 04:18:59;;;;;;;4.50;1.10;;;5.60;84.80;;;5.23;78.00;98095.84;5072753;28;20799;-74
2023/01/12 04:24:11;;;;;;;4.13;1.60;;;5.60;84.80;;;5.20;77.47;98104.25;5081252;28;20483;-74
2023/01/12 04:26:39;;;;;;;5.20;1.50;;;5.70;84.60;;;5.30;77.43;98110.22;5081633;28;20482;-73
2023/01/12 04:29:06;;;;;;;2.20;1.23;;;5.70;84.20;;;5.39;76.88;98103.78;5070712;28;20452;-73
2023/01/12 04:31:33;;;;;;;6.00;1.20;;;5.80;83.90;;;5.44;76.05;98107.75;5072229;28;20448;-76
2023/01/12 04:34:02;;;;;;;7.47;1.73;;;5.80;83.70;;;5.53;75.77;98103.97;5089621;28;20480;-72
2023/01/12 04:36:29;;;;;;;2.73;1.50;;;5.90;83.40;;;5.55;75.73;98099.31;5076637;28;20447;-74
2023/01/12 04:38:56;;;;;;;2.30;1.27;;;6.00;83.40;;;5.42;76.14;98091.03;5088363;28;20440;-73
2023/01/12 04:41:23;;;;;;;5.13;1.33;;;5.90;83.30;;;5.43;76.49;98100.75;5092181;28;20961;-75
2023/01/12 04:43:51;;;;;;;5.00;1.90;;;5.90;83.60;;;5.42;75.96;98091.84;5087807;28;20568;-73
2023/01/12 04:46:18;;;;;;;2.43;1.30;;;5.90;83.50;;;5.25;76.91;98080.44;5080536;28;20522;-74
2023/01/12 04:48:45;;;;;;;4.83;1.30;;;5.80;83.70;;;5.21;77.38;98085.31;5059233;28;20448;-72
2023/01/12 04:51:14;;;;;;;4.43;1.53;;;5.70;83.80;;;5.23;77.11;98087.81;5088185;28;20481;-71
2023/01/12 04:53:41;;;;;;;6.17;1.63;;;5.70;84.20;;;5.22;77.59;98092.34;5087180;28;20447;-72
2023/01/12 04:56:09;;;;;;;3.30;1.90;;;5.70;84.50;;;5.14;77.69;98083.53;5087684;28;20447;-75
2023/01/12 04:58:37;;;;;;;4.13;2.50;;;5.70;84.40;;;5.17;77.58;98067.97;5072181;28;20455;-75
2023/01/12 05:01:13;;;;;;;2.70;1.37;;;5.70;84.50;;;5.19;77.08;98078.47;5090773;28;20458;-73
2023/01/12 05:03:40;;;;;;;2.60;1.50;;;5.70;84.30;;;5.27;76.97;98081.09;5089598;28;20918;-72
2023/01/12 05:06:08;;;;;;;5.90;1.47;;;5.70;84.30;;;5.27;77.35;98078.44;5069980;28;20489;-75
2023/01/12 05:11:24;;;;;;;3.20;1.40;;;5.70;84.20;;;5.18;77.16;98090.19;5078296;28;20463;-76
2023/01/12 05:13:51;;;;;;;3.90;1.37;;;5.70;84.30;;;4.78;77.33;98018.03;5089872;28;20516;-70
2023/01/12 05:16:19;;;;;;;2.20;1.53;;;5.70;84.40;;;5.28;77.24;98081.91;5088782;28;20479;-71
2023/01/12 05:18:46;;;;;;;3.17;1.20;;;5.70;84.30;;;5.25;77.39;98086.63;5093634;28;20466;-73
2023/01/12 05:21:16;;;;;;;3.10;1.30;;;5.70;84.10;;;5.37;77.32;98084.34;5079607;28;20838;-71
2023/01/12 05:23:45;;;;;;;5.07;1.37;;;5.80;84.20;;;5.25;77.11;98075.09;5078680;28;20675;-71
2023/01/12 05:26:13;;;;;;;3.13;1.23;;;5.70;84.10;;;5.18;77.84;98071.44;5065003;28;20587;-73
2023/01/12 05:28:41;;;;;;;4.03;1.53;;;5.70;84.30;;;5.19;77.53;98060.56;5086413;28;20849;-73
2023/01/12 05:31:11;;;;;;;4.60;1.80;;;5.70;84.40;;;5.15;77.54;98058.44;5087150;28;20945;-74
2023/01/12 05:33:41;;;;;;;5.87;1.50;;;5.70;84.50;;;5.23;77.76;98056.50;5070574;28;20803;-72
2023/01/12 05:36:11;;;;;;;3.87;1.70;;;5.70;84.60;;;5.23;77.57;98061.88;5088480;28;20516;-72
2023/01/12 05:38:38;;;;;;;2.90;1.60;;;5.60;84.70;;;5.31;77.16;98055.59;5080190;28;20445;-71
2023/01/12 05:41:09;;;;;;;5.47;2.10;;;5.70;84.80;;;5.27;77.84;98062.34;5063112;28;20448;-71
2023/01/12 05:43:51;;;;;;;3.93;1.60;;;5.70;84.90;;;5.39;76.94;98054.69;5084292;28;20465;-72
2023/01/12 05:46:21;;;;;;;1.87;1.27;;;5.70;84.40;;;5.34;77.68;98055.25;5078475;28;20488;-73
2023/01/12 05:48:50;;;;;;;4.50;1.70;;;5.80;84.40;;;5.39;76.52;98060.06;5074053;28;20832;-73
2023/01/12 05:51:17;;;;;;;1.83;1.60;;;5.80;84.40;;;5.41;76.26;98057.22;5072460;28;20456;-72
2023/01/12 05:53:45;;;;;;;8.40;1.50;;;5.80;84.00;;;5.28;76.64;98055.13;5082071;28;20459;-71
2023/01/12 05:56:18;;;;;;;6.30;2.00;;;5.80;84.10;;;5.21;75.88;98018.34;5078878;28;20502;-70
2023/01/12 05:58:50;;;;;;;6.03;1.87;;;5.90;84.20;;;5.34;77.09;98060.59;5075941;28;20462;-68
2023/01/12 06:01:17;;;;;;;4.80;1.97;;;5.80;84.10;;;5.45;76.64;98066.53;5054418;28;20528;-69
2023/01/12 06:03:48;;;;;;;4.20;1.70;;;5.80;84.10;;;5.30;76.84;98061.13;5081642;28;21055;-69
2023/01/12 06:06:16;;;;;;;2.50;1.33;;;5.80;84.10;;;5.28;77.23;98074.72;5068904;28;20997;-70
2023/01/12 06:08:43;;;;;;;9.30;1.77;;;5.80;84.10;;;5.48;77.02;98063.50;5087184;28;20489;-67
2023/01/12 06:13:55;;;;;;;3.50;2.07;;;5.80;84.30;;;5.38;76.72;98069.97;5061491;28;20456;-69
2023/01/12 06:14:00;;;;;;;4.53;1.80;;;5.80;84.30;;;5.59;76.28;98062.22;5079505;28;20461;-69
2023/01/12 06:16:28;;;;;;;10.17;1.77;;;5.80;84.10;;;5.49;76.10;98062.47;5075752;28;20460;-69
2023/01/12 06:18:57;;;;;;;5.20;1.77;;;5.90;84.00;;;5.44;76.41;98062.22;5084349;28;20952;-70
2023/01/12 06:21:26;;;;;;;4.57;1.63;;;5.90;83.70;;;5.48;76.31;98072.38;5084376;28;20462;-69
2023/01/12 06:23:53;;;;;;;3.40;1.50;;;5.90;83.40;;;5.46;75.97;98065.53;5069052;28;20939;-69
2023/01/12 06:26:20;;;;;;;4.60;1.90;;;5.80;83.30;;;5.54;75.94;98052.06;5063360;28;20475;-68
2023/01/12 06:28:47;;;;;;;4.77;1.60;;;5.90;83.40;;;5.63;75.77;98044.78;5091197;28;20579;-68
2023/01/12 06:31:16;;;;;;;3.10;1.60;;;5.90;83.20;;;5.55;75.56;98047.53;5088969;28;20644;-69
2023/01/12 06:33:43;;;;;;;2.80;1.80;;;5.90;83.20;;;5.36;76.31;98037.13;5075772;28;20513;-69
2023/01/12 06:36:11;;;;;;;2.70;1.73;;;5.80;83.60;;;5.23;76.23;98024.38;5059871;28;20448;-68
2023/01/12 06:38:39;;;;;;;8.13;1.30;;;5.70;83.20;;;5.35;75.74;98048.06;5066773;28;20931;-67
2023/01/12 06:42:27;;;;;;;7.00;2.07;;;5.70;83.30;;;5.36;76.42;98039.81;5068562;28;20440;-68
2023/01/12 06:43:57;;;;;;;4.33;1.80;;;5.80;83.30;;;5.62;75.08;98035.06;5067851;28;20455;-69
2023/01/12 06:46:27;;;;;;;5.37;2.03;;;5.90;83.00;;;5.65;74.45;98040.88;5083859;28;20470;-68
2023/01/12 06:48:56;;;;;;;5.87;1.93;;;6.00;82.50;;;5.70;74.72;98029.63;5090114;28;20479;-67
2023/01/12 06:51:23;;;;;;;4.47;1.80;;;6.00;82.40;;;5.78;73.91;98020.66;5087494;28;20740;-69
2023/01/12 06:53:50;;;;;;;3.90;2.13;;;6.10;82.10;;;5.71;74.60;98027.78;5075455;28;20466;-68
2023/01/12 06:56:17;;;;;;;3.67;1.60;;;6.10;82.10;;;5.79;74.51;98027.69;5085778;28;20447;-68
2023/01/12 06:58:45;;;;;;;7.77;2.10;;;6.10;82.30;;;5.93;73.79;98026.03;5064910;28;20465;-69
2023/01/12 07:01:12;;;;;;;5.17;1.80;;;6.20;81.90;;;5.46;73.74;97955.66;5073873;28;20897;-69
2023/01/12 07:03:41;;;;;;;7.93;2.73;;;6.30;81.80;;;5.94;73.47;98014.28;5091298;28;20468;-68
2023/01/12 07:06:08;;;;;;;5.10;2.20;;;6.30;81.40;;;6.05;72.52;98015.69;5090895;28;20638;-68
2023/01/12 07:08:36;;;;;;;11.07;2.00;;;6.40;81.30;;;6.05;72.65;98004.97;5089044;28;20517;-69
2023/01/12 07:11:04;;;;;;;3.87;1.50;;;6.40;81.10;;;6.07;72.42;98009.13;5088722;28;20941;-68
2023/01/12 07:13:31;;;;;;;4.30;2.07;;;6.50;81.10;;;6.09;72.44;98001.72;5088185;28;20525;-69
2023/01/12 07:15:59;;;;;;;13.33;2.23;;;6.50;81.00;;;6.12;72.19;98005.84;5069050;28;20513;-68
2023/01/12 07:18:28;;;;;;;8.00;3.10;;;6.50;80.90;;;6.00;73.47;98010.03;5064932;28;20544;-69
2023/01/12 07:20:56;;;;;;;5.60;2.10;;;6.40;81.00;;;5.98;72.96;98009.34;5086827;28;20536;-69
2023/01/12 07:23:23;;;;;;;4.73;1.83;;;6.40;81.00;;;6.03;73.03;98012.38;5089387;28;20471;-68
2023/01/12 07:25:51;;;;;;;3.97;2.30;;;6.40;81.10;;;6.08;73.23;98015.31;5082014;28;20509;-68
2023/01/12 07:28:18;;;;;;;3.70;1.93;;;6.50;81.20;;;6.11;72.71;98009.56;5088704;28;21015;-69
2023/01/12 07:30:45;;;;;;;5.70;2.20;;;6.50;81.10;;;6.26;71.67;98008.72;5089751;28;20927;-70
2023/01/12 07:33:14;;;;;;;3.40;1.93;;;6.60;80.80;;;6.14;72.48;97998.47;5088177;28;20460;-69
2023/01/12 07:35:43;;;;;;;5.27;2.00;;;6.50;80.60;;;6.12;72.25;98000.50;5087850;28;20460;-69
2023/01/12 07:38:11;;;;;;;6.33;3.00;;;6.50;80.50;;;6.14;72.71;98000.31;5071119;28;20553;-68
2023/01/12 07:40:38;;;;;;;4.20;1.97;;;6.50;80.80;;;6.12;72.77;97999.69;5073319;28;20523;-69
2023/01/12 07:43:10;;;;;;;4.13;1.60;;;6.50;80.60;;;6.22;71.76;98003.72;5079532;28;20464;-69
2023/01/12 07:45:37;;;;;;;5.30;1.50;;;6.60;80.50;;;6.19;72.69;98008.63;5083804;28;20558;-68
2023/01/12 07:48:05;;;;;;;7.50;2.03;;;6.50;80.70;;;6.26;72.43;98006.03;5060648;28;20447;-68
2023/01/12 07:50:32;;;;;;;6.67;2.50;;;6.60;80.70;;;6.29;72.43;98013.69;5089071;28;20539;-69
2023/01/12 07:53:01;;;;;;;4.60;2.30;;;6.60;80.90;;;6.39;72.12;97998.13;5088062;28;20455;-69
2023/01/12 07:55:30;;;;;;;5.73;2.00;;;6.70;80.90;;;6.21;72.48;97996.69;5088121;28;20458;-69
2023/01/12 07:57:59;;;;;;;5.57;1.80;;;6.60;80.70;;;6.41;72.43;97990.72;5080582;28;20459;-68
2023/01/12 08:00:28;;;;;;;5.57;2.23;;;6.60;80.80;;;6.44;72.52;97982.28;5091749;28;20460;-68
2023/01/12 08:03:03;;;;;;;6.63;2.10;;;6.70;80.80;;;6.65;71.97;97976.13;5077854;28;20452;-68
2023/01/12 08:05:30;;;;;;;5.50;2.10;;;6.80;80.90;;;6.93;70.94;97985.28;5084163;28;20567;-68
2023/01/12 08:07:57;;;;;;;6.27;2.37;;;7.00;80.50;;;6.90;70.76;97980.25;5085093;28;20484;-67
2023/01/12 08:10:25;;;;;;;6.37;2.73;;;7.10;80.20;;;7.04;70.32;97968.63;5089070;28;20478;-69
2023/01/12 08:12:53;;;;;;;3.73;2.43;;;7.20;80.30;;;6.73;71.24;97985.88;5089175;28;20450;-65
2023/01/12 08:15:21;;;;;;;5.73;2.33;;;7.10;80.00;;;6.76;71.82;97969.41;5067598;28;20478;-68
2023/01/12 08:17:53;;;;;;;8.40;2.17;;;7.10;80.30;;;6.80;70.88;97976.06;5072374;28;20936;-67
2023/01/12 08:20:24;;;;;;;6.80;2.20;;;7.10;80.20;;;6.71;71.50;97987.94;5092107;28;20453;-67
2023/01/12 08:22:56;;;;;;;4.83;2.80;;;7.10;80.30;;;6.65;72.22;97983.34;5087781;28;20943;-67
2023/01/12 08:25:30;;;;;;;4.23;2.30;;;7.00;80.50;;;6.76;71.33;97977.47;5085735;28;20453;-67
2023/01/12 08:28:04;;;;;;;7.70;2.30;;;7.10;80.40;;;6.64;71.83;97973.63;5088706;28;20469;-67
2023/01/12 08:30:31;;;;;;;5.83;2.20;;;7.00;80.30;;;6.63;72.34;97977.34;5092566;28;20548;-65
2023/01/12 08:33:01;;;;;;;6.47;2.10;;;7.00;80.50;;;6.75;72.23;97983.03;5087711;28;20438;-66
2023/01/12 08:35:32;;;;;;;5.23;2.50;;;7.00;80.40;;;6.90;71.27;97980.25;5066470;28;20464;-66
2023/01/12 08:38:00;;;;;;;6.87;2.90;;;7.10;80.50;;;6.93;71.36;97987.97;5097819;28;20505;-67
2023/01/12 08:41:31;;;;;;;8.30;2.77;;;7.20;80.30;;;7.16;70.18;97984.22;5089869;28;20809;-66
2023/01/12 08:44:00;;;;;;;6.47;2.57;;;7.30;80.10;;;7.13;70.48;97974.69;5095193;28;20546;-64
2023/01/12 08:46:07;;;;;;;6.57;2.50;;;7.40;79.80;;;7.04;70.51;97965.91;5084975;28;20468;-65
2023/01/12 08:48:35;;;;;;;4.27;2.00;;;7.50;79.70;;;7.20;70.26;97985.47;5080891;28;20492;-65
2023/01/12 08:51:04;;;;;;;6.30;2.80;;;7.50;79.60;;;7.26;69.68;97973.13;5083380;28;20965;-65
2023/01/12 08:53:31;;;;;;;5.60;2.40;;;7.60;79.60;;;7.29;69.70;97962.81;5070637;28;20495;-66
2023/01/12 08:55:58;;;;;;;7.50;2.30;;;7.60;79.50;;;7.24;70.07;97965.28;5084485;28;20468;-66
2023/01/12 08:58:27;;;;;;;4.97;2.43;;;7.60;79.40;;;7.42;69.33;97955.88;5077235;28;20500;-66
2023/01/12 09:00:54;;;;;;;7.17;2.60;;;7.60;79.30;;;7.55;69.52;97955.13;5081705;28;20460;-66
2023/01/12 09:03:22;;;;;;;3.83;2.07;;;7.80;79.30;;;7.72;68.28;97955.66;5085414;28;20444;-66
2023/01/12 09:05:49;;;;;;;7.80;2.57;;;7.90;79.10;;;7.82;68.42;97945.38;5083286;28;20467;-66
2023/01/12 09:08:16;;;;;;;7.87;2.80;;;7.90;79.10;;;7.76;68.79;97956.91;5085680;28;20596;-66
2023/01/12 09:10:43;;;;;;;6.77;2.97;;;8.00;78.90;;;7.98;67.58;97970.28;5081080;28;20458;-66
2023/01/12 09:13:14;;;;;;;6.33;2.47;;;8.10;78.70;;;7.92;67.41;97967.34;5063516;28;20454;-65
2023/01/12 09:15:43;;;;;;;6.57;2.97;;;8.20;78.50;;;8.10;67.27;97963.25;5059575;28;20460;-66
2023/01/12 09:18:10;;;;;;;6.07;1.90;;;8.20;78.50;;;7.99;66.84;97966.56;5087690;28;21118;-65
2023/01/12 09:20:37;;;;;;;6.77;1.83;;;8.20;77.90;;;7.92;66.25;97961.94;5066706;28;21023;-72
2023/01/12 09:23:04;;;;;;;4.30;1.57;;;8.30;77.30;;;8.03;65.98;97951.66;5077748;28;20517;-71
2023/01/12 09:25:31;;;;;;;3.77;1.53;;;8.40;77.10;;;8.07;65.95;97969.06;5082704;28;20478;-64
2023/01/12 09:27:58;;;;;;;2.93;1.00;;;8.40;76.50;;;8.25;65.06;97954.22;5079846;28;20482;-64
2023/01/12 09:30:25;;;;;;;3.53;1.43;;;8.60;76.20;;;8.37;64.63;97960.69;5058374;28;20600;-66
2023/01/12 09:32:55;;;;;;;4.20;1.43;;;8.70;76.10;;;8.63;63.58;97967.19;5088111;28;20460;-65
2023/01/12 09:35:23;;;;;;;2.70;1.20;;;8.80;75.60;;;8.51;63.54;97958.91;5085335;28;20485;-65
2023/01/12 09:37:50;;;;;;;6.63;1.20;;;8.80;75.30;;;8.61;64.09;97951.22;5073519;28;20455;-66
2023/01/12 09:40:19;;;;;;;3.30;1.43;;;8.90;74.80;;;8.70;63.94;97968.03;5082575;28;20458;-65
2023/01/12 09:48:22;;;;;;;4.67;1.30;;;9.10;74.20;;;8.87;62.35;97952.31;5093518;28;20990;-65
2023/01/12 09:50:56;;;;;;;5.70;2.03;;;9.10;73.70;;;8.85;62.44;97940.06;5074663;28;20463;-67
2023/01/12 09:53:30;;;;;;;7.00;2.27;;;9.20;73.90;;;8.83;63.22;97956.47;5093231;28;20554;-68
2023/01/12 09:56:06;;;;;;;4.60;1.80;;;9.10;74.40;;;8.33;63.46;97886.75;5092329;28;20455;-72
2023/01/12 09:58:59;;;;;;;3.73;1.90;;;9.00;74.60;;;8.55;64.99;97960.13;5065474;28;20469;-71
2023/01/12 10:01:26;;;;;;;4.27;1.90;;;8.90;75.00;;;8.42;66.22;97950.16;5081116;28;20444;-71
2023/01/12 10:03:55;;;;;;;7.33;2.90;;;8.70;75.80;;;8.24;66.68;97953.41;5089610;28;21079;-72
2023/01/12 10:06:23;;;;;;;7.83;1.87;;;8.70;76.50;;;8.03;68.15;97948.97;5089530;28;20450;-71
2023/01/12 10:08:52;;;;;;;8.30;1.80;;;8.50;77.20;;;8.03;68.06;97947.09;5095264;28;20463;-72
2023/01/12 10:11:27;;;;;;;7.33;1.83;;;8.40;77.30;;;8.04;68.62;97946.09;5089918;28;20464;-72
2023/01/12 10:14:42;;;;;;;3.77;2.13;;;8.40;77.50;;;8.18;67.34;97932.66;5090268;28;21189;-72
2023/01/12 10:17:29;;;;;;;3.93;1.87;;;8.40;77.10;;;8.07;67.50;97934.91;5081473;28;20458;-71
2023/01/12 10:20:10;;;;;;;4.80;2.00;;;8.50;77.10;;;8.01;67.98;97948.34;5087214;28;20448;-70
2023/01/12 10:22:43;;;;;;;4.17;2.30;;;8.40;77.40;;;8.04;67.64;97938.00;5090253;28;20486;-72
2023/01/12 10:25:22;;;;;;;6.20;3.50;;;8.40;77.00;;;8.24;66.88;97939.94;5066575;28;20983;-72
2023/01/12 10:27:52;;;;;;;4.90;2.60;;;8.50;76.90;;;8.32;65.73;97933.53;5080275;28;20477;-71
2023/01/12 10:30:30;;;;;;;4.30;2.00;;;8.60;76.40;;;8.29;65.71;97934.75;5098971;28;20448;-71
2023/01/12 10:32:58;;;;;;;7.77;1.97;;;8.60;76.00;;;8.27;66.16;97930.63;5070952;28;21229;-70
2023/01/12 10:35:27;;;;;;;5.00;1.97;;;8.60;76.00;;;8.55;65.87;97935.06;5066641;28;20455;-72
2023/01/12 10:37:56;;;;;;;4.03;2.07;;;8.80;76.10;;;8.43;65.16;97940.19;5084379;28;20970;-71
2023/01/12 10:40:30;;;;;;;5.27;1.83;;;8.80;75.80;;;8.50;65.58;97938.38;5088662;28;20933;-70
2023/01/12 10:43:21;;;;;;;4.00;1.67;;;8.80;75.90;;;8.41;65.20;97918.03;5068224;28;20507;-71
2023/01/12 10:46:05;;;;;;;3.10;1.50;;;8.80;75.40;;;8.76;64.14;97924.13;5086415;28;20457;-72
2023/01/12 10:48:33;;;;;;;3.70;1.90;;;8.90;75.00;;;8.49;64.58;97921.34;5090489;28;20590;-72
2023/01/12 10:51:05;;;;;;;4.20;1.33;;;8.90;75.20;;;8.22;65.14;97923.97;5086303;28;21133;-71
2023/01/12 10:53:40;;;;;;;6.30;1.77;;;8.70;74.90;;;8.35;65.26;97917.81;5074730;28;20933;-70
2023/01/12 10:56:23;;;;;;;2.20;1.50;;;8.70;75.30;;;8.68;63.44;97920.81;5094660;28;20456;-71
2023/01/12 10:58:54;;;;;;;5.00;1.40;;;8.80;74.60;;;8.58;64.11;97923.91;5070078;28;20540;-71
2023/01/12 11:01:22;;;;;;;5.30;1.77;;;8.80;74.80;;;8.31;64.89;97924.63;5085774;28;20445;-71
2023/01/12 11:03:51;;;;;;;4.70;1.37;;;8.80;74.70;;;8.11;65.17;97919.19;5057487;28;20458;-70
2023/01/12 11:06:27;;;;;;;3.17;1.30;;;8.60;74.80;;;8.39;64.91;97929.00;5026763;28;20477;-70
2023/01/12 11:08:55;;;;;;;6.70;1.60;;;8.70;74.90;;;8.50;65.29;97919.53;5043279;28;20466;-70
2023/01/12 11:11:31;;;;;;;5.80;2.23;;;8.80;75.10;;;8.37;65.01;97914.91;5042344;28;20447;-71
2023/01/12 11:14:00;;;;;;;5.50;2.43;;;8.70;74.80;;;8.65;64.58;97916.66;5031533;28;20472;-70